Time;durP1;ratioP1;P1;durP2;ratioP2;P2;SDS_P1;SDS_P2;PMS_P1;PMS_P2;Temp;Humidity;BMP_temperature;BMP_pressure;BME280_temperature;BME280_humidity;BME280_pressure;Samples;Min_cycle;Max_cycle;Signal;HPM_P1;HPM_P2
2020/12/16 00:01:42;;;;;;;100.95;49.50;;;;;;;0.20;78.76;95085.44;1731538;82;21555;-49
2020/12/16 00:04:10;;;;;;;99.87;48.42;;;;;;;0.19;78.86;95085.83;1709092;82;21487;-50
2020/12/16 00:06:38;;;;;;;98.70;50.20;;;;;;;0.21;79.02;95087.58;1732029;82;21091;-53
2020/12/16 00:09:07;;;;;;;90.87;46.80;;;;;;;0.30;79.15;95090.18;1740440;81;21083;-50
2020/12/16 00:11:36;;;;;;;85.80;43.95;;;;;;;0.39;79.05;95090.63;1742778;82;21104;-51
2020/12/16 00:14:04;;;;;;;100.53;50.28;;;;;;;0.48;78.98;95087.61;1737760;82;21707;-49
2020/12/16 00:16:33;;;;;;;101.18;50.05;;;;;;;0.58;78.82;95093.09;1720653;81;21219;-50
2020/12/16 00:19:01;;;;;;;89.20;44.45;;;;;;;0.66;78.62;95100.70;1709964;82;21064;-51
2020/12/16 00:21:30;;;;;;;84.22;44.38;;;;;;;0.72;78.53;95103.25;1729687;82;21484;-52
2020/12/16 00:23:58;;;;;;;92.08;48.05;;;;;;;0.74;78.22;95101.73;1725391;82;21066;-51
2020/12/16 00:26:26;;;;;;;99.07;47.75;;;;;;;0.68;78.05;95095.13;1740072;82;21535;-51
2020/12/16 00:28:55;;;;;;;106.43;52.45;;;;;;;0.67;78.18;95098.98;1737749;81;21127;-51
2020/12/16 00:31:23;;;;;;;91.40;47.73;;;;;;;0.72;78.22;95094.56;1725464;82;21269;-52
2020/12/16 00:33:52;;;;;;;92.53;47.80;;;;;;;0.74;77.93;95094.97;1743585;81;21214;-50
2020/12/16 00:36:20;;;;;;;94.77;51.00;;;;;;;0.67;77.83;95094.13;1737593;82;21166;-53
2020/12/16 00:38:48;;;;;;;100.62;49.23;;;;;;;0.64;77.92;95090.27;1718704;81;22094;-49
2020/12/16 00:41:17;;;;;;;93.20;50.43;;;;;;;0.55;77.71;95093.86;1728422;81;21104;-51
2020/12/16 00:43:45;;;;;;;95.85;49.85;;;;;;;0.40;77.77;95092.17;1728848;81;21087;-50
2020/12/16 00:46:14;;;;;;;88.33;44.38;;;;;;;0.29;77.97;95084.56;1734960;81;21119;-55
2020/12/16 00:48:42;;;;;;;105.85;53.58;;;;;;;0.22;78.18;95088.55;1743714;81;21621;-52
2020/12/16 00:51:13;;;;;;;113.45;53.92;;;;;;;0.17;78.30;95087.54;1715390;81;22230;-53
2020/12/16 00:53:42;;;;;;;121.42;61.70;;;;;;;0.11;78.48;95088.25;1732276;81;21179;-51
2020/12/16 00:56:11;;;;;;;119.45;59.08;;;;;;;0.11;78.94;95087.69;1716859;81;21100;-51
2020/12/16 00:58:39;;;;;;;262.08;121.45;;;;;;;0.21;78.96;95085.64;1711921;81;21492;-49
2020/12/16 01:01:08;;;;;;;194.35;90.75;;;;;;;0.28;79.20;95084.36;1714777;82;21473;-51
2020/12/16 01:03:37;;;;;;;117.25;57.17;;;;;;;0.41;79.15;95080.80;1714962;81;22015;-51
2020/12/16 01:06:06;;;;;;;135.82;67.17;;;;;;;0.56;78.70;95083.23;1745217;82;21239;-52
2020/12/16 01:08:35;;;;;;;113.60;57.38;;;;;;;0.49;78.04;95078.33;1733472;82;21168;-51
2020/12/16 01:11:03;;;;;;;96.10;52.78;;;;;;;0.38;78.08;95080.95;1732404;81;21072;-50
2020/12/16 01:13:32;;;;;;;65.60;36.45;;;;;;;0.34;78.22;95086.13;1707818;81;21107;-50
2020/12/16 01:16:00;;;;;;;72.40;39.27;;;;;;;0.31;78.11;95086.32;1722064;82;21370;-50
2020/12/16 01:18:29;;;;;;;75.35;41.63;;;;;;;0.25;78.02;95082.38;1719298;81;21108;-50
2020/12/16 01:21:00;;;;;;;79.53;41.10;;;;;;;0.20;78.16;95082.73;1725344;82;21219;-50
2020/12/16 01:23:30;;;;;;;76.07;37.98;;;;;;;0.20;78.42;95080.62;1728792;82;21595;-49
2020/12/16 01:25:58;;;;;;;78.45;40.40;;;;;;;0.27;78.42;95083.38;1730240;82;21072;-50
2020/12/16 01:28:27;;;;;;;75.00;36.77;;;;;;;0.32;78.50;95079.76;1742437;81;21380;-50
2020/12/16 01:30:57;;;;;;;69.62;36.50;;;;;;;0.36;78.30;95076.50;1730255;81;21099;-50
2020/12/16 01:33:26;;;;;;;68.80;39.18;;;;;;;0.36;78.25;95071.09;1741307;82;21163;-50
2020/12/16 01:36:02;;;;;;;56.42;29.82;;;;;;;0.35;78.38;95069.53;1739068;82;21171;-51
2020/12/16 01:38:32;;;;;;;45.83;26.05;;;;;;;0.37;78.47;95068.58;1704267;81;21069;-53
2020/12/16 01:41:05;;;;;;;44.35;28.05;;;;;;;0.35;78.44;95066.83;1726913;82;21262;-50
2020/12/16 01:43:37;;;;;;;43.87;27.17;;;;;;;0.31;78.68;95063.33;1735889;82;21231;-50
2020/12/16 01:46:06;;;;;;;47.88;26.15;;;;;;;0.29;78.83;95057.52;1733242;81;21183;-50
2020/12/16 01:48:36;;;;;;;45.80;26.15;;;;;;;0.29;78.90;95053.45;1742123;82;21099;-50
2020/12/16 01:51:04;;;;;;;54.83;26.62;;;;;;;0.27;79.07;95052.27;1722603;82;21087;-50
2020/12/16 01:53:33;;;;;;;57.35;29.80;;;;;;;0.25;79.28;95042.39;1734194;81;22319;-51
2020/12/16 01:56:01;;;;;;;51.05;25.25;;;;;;;0.23;79.41;95036.59;1736059;82;21293;-51
2020/12/16 01:58:38;;;;;;;51.13;26.20;;;;;;;0.19;79.62;95033.84;1728658;82;21107;-51
2020/12/16 02:01:06;;;;;;;45.75;23.65;;;;;;;0.20;79.88;95036.75;1716539;82;21091;-50
2020/12/16 02:03:35;;;;;;;57.30;28.80;;;;;;;0.19;80.06;95025.73;1743555;81;21539;-50
2020/12/16 02:06:06;;;;;;;48.85;22.58;;;;;;;0.19;80.19;95032.48;1719047;82;21195;-50
2020/12/16 02:08:35;;;;;;;48.35;24.90;;;;;;;0.22;80.46;95026.92;1714722;82;21278;-49
2020/12/16 02:11:04;;;;;;;47.30;24.67;;;;;;;0.28;80.56;95024.84;1736017;81;21092;-50
2020/12/16 02:13:34;;;;;;;50.23;25.12;;;;;;;0.31;80.60;95021.95;1710942;82;21107;-50
2020/12/16 02:16:03;;;;;;;35.45;19.67;;;;;;;0.35;80.58;95028.16;1736958;81;21194;-50
2020/12/16 02:18:31;;;;;;;38.75;22.40;;;;;;;0.34;80.48;95026.05;1726231;82;21207;-50
2020/12/16 02:21:02;;;;;;;55.17;26.17;;;;;;;0.29;80.62;95027.75;1742879;81;21198;-50
2020/12/16 02:23:32;;;;;;;45.00;23.22;;;;;;;0.33;81.06;95030.47;1736737;81;21175;-51
2020/12/16 02:26:02;;;;;;;46.50;25.57;;;;;;;0.46;81.57;95025.76;1743525;81;21202;-51
2020/12/16 02:28:32;;;;;;;41.35;22.00;;;;;;;0.57;81.06;95027.94;1743709;81;21465;-50
2020/12/16 02:31:01;;;;;;;41.60;21.75;;;;;;;0.59;80.91;95022.92;1716507;82;21343;-50
2020/12/16 02:33:37;;;;;;;49.48;24.60;;;;;;;0.59;80.83;95020.22;1719510;82;21151;-51
2020/12/16 02:36:10;;;;;;;45.98;25.75;;;;;;;0.58;80.64;95018.67;1714033;81;21087;-50
2020/12/16 02:38:51;;;;;;;46.10;25.23;;;;;;;0.66;81.07;95012.73;1867728;76;22676;-50
2020/12/16 02:41:22;;;;;;;45.45;24.27;;;;;;;0.74;80.94;95012.98;1808517;78;21169;-49
2020/12/16 02:43:51;;;;;;;38.48;23.32;;;;;;;0.81;80.57;95020.55;1808606;79;22231;-50
2020/12/16 02:46:21;;;;;;;51.50;28.60;;;;;;;0.84;80.47;95014.39;1808474;79;21195;-50
2020/12/16 02:48:50;;;;;;;94.65;41.37;;;;;;;0.89;80.36;95011.88;1808518;78;21069;-49
2020/12/16 02:51:19;;;;;;;94.22;45.63;;;;;;;0.87;80.19;95005.51;1808543;79;21104;-51
2020/12/16 02:53:49;;;;;;;64.72;32.80;;;;;;;0.86;80.23;95013.44;1805829;78;21065;-51
2020/12/16 02:56:28;;;;;;;45.38;25.65;;;;;;;0.93;80.06;95012.11;1873598;76;22610;-51
2020/12/16 02:58:58;;;;;;;66.60;32.90;;;;;;;0.86;80.31;95013.44;1840466;78;21073;-52
2020/12/16 03:01:27;;;;;;;58.55;30.70;;;;;;;0.89;80.02;95015.38;1841596;77;21345;-50
2020/12/16 03:03:57;;;;;;;54.88;26.57;;;;;;;0.94;80.33;95006.89;1841304;77;21069;-50
2020/12/16 03:06:46;;;;;;;45.85;24.98;;;;;;;1.08;80.06;95006.96;1841566;78;21018;-52
2020/12/16 03:09:16;;;;;;;46.55;25.50;;;;;;;1.12;79.56;95007.75;1841584;78;21101;-51
2020/12/16 03:11:52;;;;;;;33.35;18.35;;;;;;;1.19;79.73;95010.50;1841574;78;21061;-50
2020/12/16 03:14:22;;;;;;;42.80;24.35;;;;;;;1.30;79.18;95019.44;1841445;78;21364;-50
2020/12/16 03:16:55;;;;;;;43.08;25.27;;;;;;;1.23;78.85;95015.36;1841602;77;21136;-51
2020/12/16 03:19:28;;;;;;;39.80;19.40;;;;;;;1.20;79.02;95017.48;1813406;77;20958;-52
2020/12/16 03:21:58;;;;;;;42.58;23.55;;;;;;;1.25;78.87;95023.87;1841547;78;21069;-52
2020/12/16 03:24:34;;;;;;;97.82;41.70;;;;;;;1.24;78.42;95021.53;1823384;78;21098;-51
2020/12/16 03:27:10;;;;;;;164.13;69.32;;;;;;;1.22;78.47;95015.72;1840314;78;21362;-51
2020/12/16 03:29:40;;;;;;;172.43;72.97;;;;;;;1.17;78.20;95016.09;1834637;78;21152;-52
2020/12/16 03:32:23;;;;;;;;;;;;;;;1.16;78.43;95016.66;1842302;78;21148;-51
2020/12/16 03:35:09;;;;;;;105.75;46.23;;;;;;;1.15;78.12;95015.11;1841550;77;20210;-52
2020/12/16 03:37:38;;;;;;;90.95;41.13;;;;;;;1.11;78.22;95010.26;1841562;78;21033;-53
2020/12/16 03:40:07;;;;;;;81.72;39.90;;;;;;;1.16;78.31;95010.48;1818398;78;22316;-52
2020/12/16 03:42:37;;;;;;;62.03;30.30;;;;;;;1.15;77.94;95017.81;1806976;79;21097;-53
2020/12/16 03:45:07;;;;;;;46.63;23.87;;;;;;;1.18;78.05;95019.77;1808499;78;21058;-54
2020/12/16 03:47:37;;;;;;;51.73;27.77;;;;;;;1.21;77.61;95013.61;1808221;79;21082;-53
2020/12/16 03:50:06;;;;;;;60.78;30.68;;;;;;;1.13;77.40;95020.13;1808515;79;21077;-53
2020/12/16 03:52:36;;;;;;;64.00;33.10;;;;;;;1.07;77.45;95020.31;1808430;79;21430;-57
2020/12/16 03:55:12;;;;;;;63.15;33.88;;;;;;;1.04;77.30;95027.05;1804723;79;21164;-57
2020/12/16 03:57:53;;;;;;;69.45;36.03;;;;;;;1.03;77.48;95018.17;1873657;76;22600;-56
2020/12/16 04:00:25;;;;;;;96.87;45.08;;;;;;;1.04;77.83;95022.42;1839814;78;21066;-57
2020/12/16 04:02:55;;;;;;;100.55;47.20;;;;;;;1.17;77.58;95018.21;1841721;77;21387;-55
2020/12/16 04:05:38;;;;;;;110.75;51.70;;;;;;;1.15;77.02;95021.88;1798497;78;21121;-52
2020/12/16 04:08:06;;;;;;;78.40;38.60;;;;;;;1.03;76.95;95018.17;1841573;77;20995;-49
2020/12/16 04:10:54;;;;;;;73.37;37.50;;;;;;;0.98;76.97;95029.34;1841619;78;21038;-51
2020/12/16 04:13:22;;;;;;;75.10;37.80;;;;;;;0.87;77.15;95025.81;1841633;78;21066;-54
2020/12/16 04:15:51;;;;;;;60.45;32.58;;;;;;;0.88;77.39;95027.37;1841548;78;21361;-53
2020/12/16 04:18:20;;;;;;;49.30;27.75;;;;;;;0.86;76.85;95022.91;1841519;78;20979;-53
2020/12/16 04:20:49;;;;;;;51.58;28.17;;;;;;;0.71;76.82;95019.92;1841561;77;21117;-52
2020/12/16 04:23:18;;;;;;;53.25;28.40;;;;;;;0.59;77.05;95019.45;1841535;78;21129;-54
2020/12/16 04:25:48;;;;;;;50.45;26.02;;;;;;;0.50;77.11;95014.94;1839635;78;21141;-53
2020/12/16 04:28:17;;;;;;;51.53;27.27;;;;;;;0.44;77.33;95023.98;1841549;78;21369;-52
2020/12/16 04:30:45;;;;;;;46.28;26.48;;;;;;;0.35;77.55;95030.30;1841573;78;21165;-54
2020/12/16 04:33:14;;;;;;;84.52;44.60;;;;;;;0.40;77.96;95029.95;1841537;78;21030;-52
2020/12/16 04:35:42;;;;;;;68.47;39.03;;;;;;;0.48;77.92;95036.98;1841501;77;21069;-52
2020/12/16 04:38:11;;;;;;;79.15;45.28;;;;;;;0.60;77.82;95042.66;1841573;77;21053;-55
2020/12/16 04:40:41;;;;;;;44.58;25.50;;;;;;;0.68;77.61;95032.07;1810495;78;21201;-53
2020/12/16 04:43:20;;;;;;;55.12;33.53;;;;;;;0.71;76.98;95042.93;1808450;79;21068;-53
2020/12/16 04:45:48;;;;;;;37.85;23.22;;;;;;;0.70;77.11;95044.65;1808317;79;21579;-53
2020/12/16 04:48:17;;;;;;;37.88;23.42;;;;;;;0.62;76.47;95046.53;1808467;79;21145;-53
2020/12/16 04:50:47;;;;;;;39.50;23.70;;;;;;;0.53;76.72;95051.51;1807086;79;21116;-53
2020/12/16 04:53:19;;;;;;;40.20;23.90;;;;;;;0.53;76.79;95048.80;1808465;79;21197;-53
2020/12/16 04:55:48;;;;;;;33.92;21.00;;;;;;;0.59;76.61;95049.99;1806802;79;21120;-53
2020/12/16 04:58:28;;;;;;;38.85;23.38;;;;;;;0.60;76.17;95043.42;1832583;77;22368;-52
2020/12/16 05:00:59;;;;;;;35.80;24.10;;;;;;;0.42;76.30;95053.34;1791050;80;21148;-53
2020/12/16 05:03:30;;;;;;;45.30;26.70;;;;;;;0.39;76.49;95047.33;1789923;78;21302;-55
2020/12/16 05:05:59;;;;;;;37.25;23.62;;;;;;;0.39;76.67;95050.63;1790261;79;21164;-54
2020/12/16 05:08:28;;;;;;;47.43;29.87;;;;;;;0.37;76.18;95051.59;1790804;80;20966;-51
2020/12/16 05:10:57;;;;;;;45.30;28.83;;;;;;;0.25;76.08;95052.63;1790845;80;21481;-53
2020/12/16 05:13:26;;;;;;;53.28;27.70;;;;;;;0.19;76.31;95046.61;1790835;79;20938;-53
2020/12/16 05:15:55;;;;;;;47.33;27.45;;;;;;;0.14;76.15;95049.63;1790750;78;21189;-54
2020/12/16 05:18:27;;;;;;;50.73;29.95;;;;;;;0.05;76.25;95049.18;1744763;79;21101;-53
2020/12/16 05:21:01;;;;;;;48.17;26.17;;;;;;;0.03;76.40;95044.72;1790966;79;20939;-53
2020/12/16 05:23:31;;;;;;;50.25;28.35;;;;;;;-0.01;76.39;95051.44;1790790;80;21157;-52
2020/12/16 05:26:08;;;;;;;48.90;27.22;;;;;;;-0.06;76.27;95052.94;1790810;80;21576;-53
2020/12/16 05:28:42;;;;;;;57.58;32.88;;;;;;;-0.15;76.40;95053.24;1790752;78;21197;-53
2020/12/16 05:31:11;;;;;;;71.77;35.30;;;;;;;-0.26;76.50;95057.75;1790452;78;21234;-54
2020/12/16 05:33:47;;;;;;;71.17;38.73;;;;;;;-0.34;76.68;95058.84;1790775;79;21156;-54
2020/12/16 05:36:32;;;;;;;75.52;41.13;;;;;;;-0.45;76.79;95055.23;1790801;79;21086;-53
2020/12/16 05:39:00;;;;;;;83.58;44.33;;;;;;;-0.54;77.41;95059.38;1783658;79;21136;-53
2020/12/16 05:41:30;;;;;;;89.00;45.92;;;;;;;-0.50;77.52;95061.53;1759524;81;21372;-54
2020/12/16 05:44:21;;;;;;;67.25;38.48;;;;;;;-0.49;77.37;95061.73;1727742;83;21035;-54
2020/12/16 05:46:50;;;;;;;85.85;45.03;;;;;;;-0.53;77.30;95063.63;1759482;81;21204;-54
2020/12/16 05:49:28;;;;;;;98.90;50.70;;;;;;;-0.61;77.32;95062.77;1759426;81;21069;-53
2020/12/16 05:52:05;;;;;;;94.47;52.78;;;;;;;-0.63;77.67;95062.95;1759484;81;21076;-54
2020/12/16 05:54:37;;;;;;;119.10;63.75;;;;;;;-0.55;77.75;95056.47;1759503;81;22141;-55
2020/12/16 05:57:24;;;;;;;105.80;60.03;;;;;;;-0.48;77.73;95066.78;1759349;80;21509;-53
2020/12/16 06:00:10;;;;;;;70.52;41.58;;;;;;;-0.44;77.51;95076.30;1759563;80;21152;-56
2020/12/16 06:02:45;;;;;;;87.72;42.60;;;;;;;-0.50;77.22;95075.84;1759488;80;21152;-54
2020/12/16 06:05:15;;;;;;;72.40;41.25;;;;;;;-0.66;77.19;95071.77;1759623;80;21141;-55
2020/12/16 06:07:47;;;;;;;95.53;47.13;;;;;;;-0.71;77.37;95074.80;1759471;80;23311;-54
2020/12/16 06:10:17;;;;;;;100.70;49.93;;;;;;;-0.80;77.49;95078.36;1758865;81;21121;-52
2020/12/16 06:12:47;;;;;;;127.82;59.42;;;;;;;-0.86;77.46;95080.60;1759041;81;21412;-53
2020/12/16 06:15:16;;;;;;;124.67;57.08;;;;;;;-0.90;77.57;95087.89;1758887;81;21086;-54
2020/12/16 06:17:47;;;;;;;127.30;59.08;;;;;;;-0.94;77.40;95080.29;1758897;81;21053;-58
2020/12/16 06:20:18;;;;;;;123.40;58.60;;;;;;;-1.05;77.39;95082.65;1758916;80;21367;-54
2020/12/16 06:22:47;;;;;;;122.37;64.32;;;;;;;-1.12;77.67;95083.91;1758804;81;21161;-54
2020/12/16 06:25:17;;;;;;;133.05;72.45;;;;;;;-1.06;78.28;95091.33;1758956;80;21069;-55
2020/12/16 06:27:50;;;;;;;152.62;76.05;;;;;;;-0.88;78.33;95084.80;1758830;81;21074;-55
2020/12/16 06:30:30;;;;;;;184.45;85.77;;;;;;;-0.72;77.73;95094.85;1759032;81;21058;-54
2020/12/16 06:33:31;;;;;;;338.25;142.22;;;;;;;-0.67;77.38;95089.12;1758947;80;21490;-51
2020/12/16 06:36:04;;;;;;;290.80;128.35;;;;;;;-0.66;77.22;95102.83;1758824;80;21145;-53
2020/12/16 06:38:47;;;;;;;347.48;145.55;;;;;;;-0.70;77.12;95096.61;1758986;80;21499;-54
2020/12/16 06:41:24;;;;;;;333.68;140.97;;;;;;;-0.67;77.34;95098.57;1758869;80;23813;-54
2020/12/16 06:44:09;;;;;;;305.27;132.10;;;;;;;-0.55;77.00;95101.05;1758780;81;21065;-52
2020/12/16 06:46:43;;;;;;;192.18;90.15;;;;;;;-0.54;76.67;95106.09;1753331;81;21385;-52
2020/12/16 06:49:25;;;;;;;198.20;92.55;;;;;;;-0.55;76.53;95102.40;1758419;80;21550;-52
2020/12/16 06:52:09;;;;;;;216.02;108.83;;;;;;;-0.52;76.59;95108.41;1757851;81;21075;-52
2020/12/16 06:54:44;;;;;;;188.30;107.30;;;;;;;-0.49;76.35;95107.67;1749290;82;21180;-54
2020/12/16 07:00:04;;;;;;;182.62;93.78;;;;;;;-0.32;76.17;95104.40;1872235;75;22060;-55
2020/12/16 07:02:36;;;;;;;185.43;89.42;;;;;;;-0.27;76.08;95107.55;1859733;77;21536;-54
2020/12/16 07:05:06;;;;;;;190.65;95.53;;;;;;;-0.18;75.82;95108.61;1863063;77;21356;-54
2020/12/16 07:07:48;;;;;;;193.85;97.20;;;;;;;-0.19;75.65;95109.77;1862915;77;21570;-56
2020/12/16 07:10:39;;;;;;;194.67;107.27;;;;;;;-0.21;75.63;95112.06;1851212;75;21622;-53
2020/12/16 07:13:24;;;;;;;181.05;105.67;;;;;;;-0.27;75.60;95118.92;1727630;83;21264;-52
2020/12/16 07:18:49;;;;;;;195.47;105.22;;;;;;;-0.02;75.63;95106.47;1871712;75;22224;-54
2020/12/16 07:21:22;;;;;;;193.82;100.95;;;;;;;0.06;75.47;95105.58;1840254;77;21149;-55
2020/12/16 07:23:57;;;;;;;199.95;102.58;;;;;;;0.19;75.14;95109.58;1839721;77;22162;-53
2020/12/16 07:26:34;;;;;;;226.62;119.08;;;;;;;0.30;75.08;95110.47;1835499;77;21161;-53
2020/12/16 07:29:34;;;;;;;295.03;146.13;;;;;;;0.42;75.02;95104.76;1839760;78;21129;-54
2020/12/16 07:32:12;;;;;;;273.35;161.43;;;;;;;0.50;74.54;95099.63;1841770;76;27818;-59
2020/12/16 07:34:58;;;;;;;318.67;158.82;;;;;;;0.53;74.37;95106.98;1819136;78;21160;-54
2020/12/16 07:37:28;;;;;;;306.40;159.75;;;;;;;0.48;74.09;95105.98;1829278;78;21303;-52
2020/12/16 07:40:17;;;;;;;299.00;165.55;;;;;;;0.38;74.18;95103.95;1799610;78;22233;-55
2020/12/16 07:42:47;;;;;;;226.52;137.50;;;;;;;0.31;74.31;95103.91;1795193;79;21073;-57
2020/12/16 07:45:17;;;;;;;219.35;125.55;;;;;;;0.31;74.56;95103.11;1807474;78;21104;-54
2020/12/16 07:47:45;;;;;;;211.90;123.90;;;;;;;0.37;74.69;95103.75;1795182;78;21195;-53
2020/12/16 07:50:14;;;;;;;212.55;123.20;;;;;;;0.46;74.54;95098.82;1818993;78;22655;-54
2020/12/16 07:52:43;;;;;;;233.47;137.15;;;;;;;0.54;74.76;95097.72;1813731;78;21662;-52
2020/12/16 07:55:13;;;;;;;325.18;181.70;;;;;;;0.69;74.90;95099.94;1762676;78;21635;-54
2020/12/16 07:57:41;;;;;;;318.30;178.47;;;;;;;0.84;74.76;95099.69;1812492;78;21180;-56
2020/12/16 08:00:11;;;;;;;270.97;153.10;;;;;;;0.94;74.89;95095.50;1814282;78;21179;-52
2020/12/16 08:02:44;;;;;;;251.18;143.10;;;;;;;1.10;74.90;95088.62;1804462;78;21187;-53
2020/12/16 08:05:13;;;;;;;243.27;140.80;;;;;;;1.20;74.42;95100.11;1816556;78;21214;-57
2020/12/16 08:07:42;;;;;;;213.07;125.90;;;;;;;1.23;74.26;95100.70;1806125;78;21156;-54
2020/12/16 08:10:11;;;;;;;223.03;130.87;;;;;;;1.28;74.04;95101.69;1817884;78;21153;-53
2020/12/16 08:12:42;;;;;;;192.10;113.20;;;;;;;1.33;74.14;95104.03;1815076;77;21131;-54
2020/12/16 08:15:17;;;;;;;194.05;114.60;;;;;;;1.45;74.15;95097.50;1809895;78;21229;-57
2020/12/16 08:17:51;;;;;;;170.38;106.72;;;;;;;1.46;74.20;95086.30;1796278;79;21178;-52
2020/12/16 08:20:22;;;;;;;170.70;102.02;;;;;;;1.61;74.18;95085.20;1779319;78;21505;-54
2020/12/16 08:22:58;;;;;;;188.10;115.55;;;;;;;1.83;74.06;95088.17;1791683;78;21624;-53
2020/12/16 08:25:27;;;;;;;149.50;83.72;;;;;;;2.02;73.80;95089.19;1799301;78;21112;-54
2020/12/16 08:27:57;;;;;;;134.40;80.62;;;;;;;2.20;73.43;95094.86;1775109;80;21357;-54
2020/12/16 08:30:28;;;;;;;124.97;77.50;;;;;;;2.25;73.40;95088.25;1791297;78;21237;-54
2020/12/16 08:33:13;;;;;;;127.53;78.30;;;;;;;2.31;73.08;95081.30;1809412;78;21167;-53
2020/12/16 08:35:49;;;;;;;97.00;60.85;;;;;;;2.40;72.97;95085.19;1793960;78;21273;-55
2020/12/16 08:38:32;;;;;;;105.12;66.40;;;;;;;2.53;72.68;95084.22;1776218;78;21172;-54
2020/12/16 08:41:02;;;;;;;82.00;52.08;;;;;;;2.59;72.53;95084.02;1775626;80;22120;-52
2020/12/16 08:43:38;;;;;;;77.72;49.50;;;;;;;2.68;72.50;95081.70;1798922;78;21156;-57
2020/12/16 08:46:15;;;;;;;76.60;49.05;;;;;;;2.83;72.67;95091.41;1806982;79;21644;-55
2020/12/16 08:48:50;;;;;;;46.50;34.00;;;;;;;3.21;72.34;95076.39;1805947;79;21133;-58
2020/12/16 08:51:37;;;;;;;52.70;33.63;;;;;;;3.59;71.04;95077.64;1799705;79;21085;-56
2020/12/16 08:54:11;;;;;;;82.47;53.42;;;;;;;3.79;70.36;95069.77;1756004;80;21361;-56
2020/12/16 08:56:51;;;;;;;63.55;41.68;;;;;;;3.93;69.82;95071.86;1787608;79;21184;-56
2020/12/16 08:59:28;;;;;;;61.28;42.23;;;;;;;4.17;69.10;95070.94;1739067;82;21173;-58
2020/12/16 09:02:09;;;;;;;58.05;37.80;;;;;;;4.39;68.75;95068.27;1732611;81;21206;-58
2020/12/16 09:04:41;;;;;;;87.47;51.88;;;;;;;4.58;67.84;95062.28;1719203;83;21581;-55
2020/12/16 09:07:14;;;;;;;111.88;71.60;;;;;;;4.56;67.56;95057.04;1727316;82;21385;-54
2020/12/16 09:09:51;;;;;;;108.20;69.42;;;;;;;4.55;67.52;95052.77;1727133;83;21301;-58
2020/12/16 09:12:22;;;;;;;98.52;57.20;;;;;;;4.70;67.44;95056.36;1697088;83;21557;-54
2020/12/16 09:14:56;;;;;;;116.67;71.17;;;;;;;4.88;66.96;95056.98;1727425;82;21222;-55
2020/12/16 09:17:30;;;;;;;129.60;84.03;;;;;;;4.91;66.50;95052.66;1719021;82;21173;-56
2020/12/16 09:19:59;;;;;;;110.57;74.22;;;;;;;4.86;66.72;95045.72;1727450;81;21579;-54
2020/12/16 09:22:29;;;;;;;96.05;63.87;;;;;;;5.05;66.72;95043.78;1717197;82;21209;-51
2020/12/16 09:24:59;;;;;;;68.12;47.60;;;;;;;5.38;66.45;95043.81;1727229;82;21075;-54
2020/12/16 09:27:29;;;;;;;63.02;43.80;;;;;;;5.69;65.92;95040.52;1727556;83;21598;-54
2020/12/16 09:30:09;;;;;;;70.42;46.45;;;;;;;6.05;65.06;95033.45;1846171;76;22960;-52
2020/12/16 09:32:38;;;;;;;66.50;43.23;;;;;;;6.33;64.36;95035.80;1807356;79;21517;-54
2020/12/16 09:35:09;;;;;;;60.05;38.08;;;;;;;6.65;63.44;95030.60;1827640;78;21180;-52
2020/12/16 09:37:38;;;;;;;51.85;32.60;;;;;;;6.75;62.96;95023.63;1807032;78;21172;-55
2020/12/16 09:40:13;;;;;;;38.38;25.30;;;;;;;6.75;62.73;95018.16;1802938;78;21112;-52
2020/12/16 09:42:57;;;;;;;54.75;28.90;;;;;;;6.73;62.61;95019.14;1806988;78;21164;-53
2020/12/16 09:45:31;;;;;;;51.40;30.80;;;;;;;6.72;62.53;95010.00;1807013;79;21097;-53
2020/12/16 09:48:01;;;;;;;53.70;30.62;;;;;;;7.06;62.27;95009.22;1806754;79;22269;-51
2020/12/16 09:50:32;;;;;;;46.70;30.15;;;;;;;7.53;61.39;95011.45;1806751;78;21216;-55
2020/12/16 09:53:10;;;;;;;46.37;29.60;;;;;;;7.85;60.04;95006.11;1829076;78;21256;-53
2020/12/16 09:58:17;;;;;;;54.65;35.92;;;;;;;8.53;58.56;94998.14;1872091;75;22532;-51
2020/12/16 10:00:48;;;;;;;59.18;37.83;;;;;;;8.73;57.84;95000.20;1829769;78;21172;-53
2020/12/16 10:03:18;;;;;;;53.48;36.17;;;;;;;8.84;57.68;94995.20;1839867;77;21180;-53
2020/12/16 10:05:48;;;;;;;48.45;32.42;;;;;;;9.11;57.29;94990.22;1840104;78;21121;-54
2020/12/16 10:08:18;;;;;;;48.38;31.12;;;;;;;9.38;56.28;94985.95;1789508;78;21210;-56
2020/12/16 10:10:47;;;;;;;40.50;29.82;;;;;;;9.70;55.19;94986.45;1780876;80;21188;-56
2020/12/16 10:13:16;;;;;;;56.13;35.10;;;;;;;9.86;54.44;94983.63;1780947;79;21602;-53
2020/12/16 10:15:45;;;;;;;54.58;37.05;;;;;;;9.78;54.53;94978.94;1780864;80;21196;-55
2020/12/16 10:18:13;;;;;;;55.98;31.97;;;;;;;9.80;54.52;94978.52;1780478;80;21209;-53
2020/12/16 10:20:42;;;;;;;41.73;26.48;;;;;;;9.92;54.69;94972.26;1781009;80;21166;-53
2020/12/16 10:23:10;;;;;;;36.93;26.73;;;;;;;9.95;53.80;94972.16;1780430;80;21700;-53
2020/12/16 10:25:39;;;;;;;36.42;22.95;;;;;;;9.73;53.92;94973.20;1780706;80;21602;-56
2020/12/16 10:28:10;;;;;;;32.42;23.40;;;;;;;9.67;54.25;94968.88;1780596;80;21269;-58
2020/12/16 10:30:38;;;;;;;43.08;25.77;;;;;;;9.72;54.19;94965.59;1780355;80;21145;-56
2020/12/16 10:33:08;;;;;;;39.85;26.62;;;;;;;9.83;53.98;94961.16;1780464;79;21165;-54
2020/12/16 10:35:36;;;;;;;33.73;20.27;;;;;;;9.74;54.25;94956.89;1780676;79;21131;-57
2020/12/16 10:38:06;;;;;;;34.18;24.30;;;;;;;9.64;54.19;94959.35;1768910;79;21150;-54
2020/12/16 10:40:34;;;;;;;38.78;26.93;;;;;;;9.55;54.37;94955.08;1734737;80;21236;-54
2020/12/16 10:43:05;;;;;;;48.68;32.78;;;;;;;9.55;54.71;94956.45;1749630;80;21150;-54
2020/12/16 10:45:33;;;;;;;40.90;25.50;;;;;;;9.72;54.86;94950.47;1748349;82;21182;-55
2020/12/16 10:48:02;;;;;;;35.52;24.92;;;;;;;10.13;54.39;94949.08;1747329;81;21187;-56
2020/12/16 10:50:33;;;;;;;30.95;21.75;;;;;;;10.38;53.55;94938.06;1753270;80;21177;-57
2020/12/16 10:53:03;;;;;;;38.42;21.93;;;;;;;10.50;53.05;94935.17;1723234;82;21220;-53
2020/12/16 10:55:31;;;;;;;38.23;24.75;;;;;;;10.46;52.85;94938.62;1749409;81;21141;-53
2020/12/16 10:58:00;;;;;;;44.85;27.85;;;;;;;10.30;53.06;94938.73;1731414;81;21164;-56
2020/12/16 11:00:29;;;;;;;53.83;31.35;;;;;;;10.20;53.34;94937.84;1719566;82;21073;-56
2020/12/16 11:02:57;;;;;;;67.40;36.42;;;;;;;10.30;53.24;94938.73;1700530;83;21648;-51
2020/12/16 11:05:26;;;;;;;58.02;35.23;;;;;;;10.65;53.01;94929.34;1704939;82;21238;-53
2020/12/16 11:07:55;;;;;;;58.85;36.17;;;;;;;10.97;52.30;94926.47;1704373;82;21158;-52
2020/12/16 11:10:23;;;;;;;56.20;36.65;;;;;;;10.99;52.18;94923.29;1703969;84;21645;-53
2020/12/16 11:12:52;;;;;;;51.23;30.85;;;;;;;10.84;52.34;94917.47;1704028;83;21210;-53
2020/12/16 11:15:21;;;;;;;70.28;39.25;;;;;;;10.77;52.48;94914.97;1703954;82;21202;-55
2020/12/16 11:17:49;;;;;;;63.50;37.05;;;;;;;10.79;52.63;94916.67;1704077;84;21590;-57
2020/12/16 11:20:18;;;;;;;47.08;34.25;;;;;;;11.11;52.37;94920.48;1704052;82;21149;-56
2020/12/16 11:22:46;;;;;;;43.55;30.15;;;;;;;11.48;51.43;94913.27;1703483;82;21218;-56
2020/12/16 11:25:15;;;;;;;59.35;32.05;;;;;;;11.71;50.76;94927.39;1704023;82;21210;-55
2020/12/16 11:27:43;;;;;;;44.20;29.02;;;;;;;11.83;50.58;94917.52;1704293;84;21253;-55
2020/12/16 11:30:12;;;;;;;43.70;27.17;;;;;;;11.97;50.10;94919.15;1704019;82;21781;-55
2020/12/16 11:32:41;;;;;;;42.20;24.27;;;;;;;12.19;49.72;94919.87;1704193;82;21202;-56
2020/12/16 11:35:09;;;;;;;37.23;25.37;;;;;;;12.48;49.13;94916.77;1704401;84;21235;-56
2020/12/16 11:37:43;;;;;;;32.48;23.02;;;;;;;12.61;48.30;94912.06;1704087;82;21187;-51
2020/12/16 11:40:09;;;;;;;28.23;21.85;;;;;;;12.76;48.42;94916.38;1704033;84;21230;-54
2020/12/16 11:42:37;;;;;;;26.87;19.35;;;;;;;13.18;48.34;94912.65;1704327;84;21190;-55
2020/12/16 11:45:06;;;;;;;35.25;16.48;;;;;;;13.64;47.08;94910.02;1703701;84;21186;-56
2020/12/16 11:47:35;;;;;;;31.60;17.40;;;;;;;13.79;46.34;94909.53;1704374;83;21570;-55
2020/12/16 11:50:11;;;;;;;28.02;20.65;;;;;;;13.87;46.08;94908.61;1704498;84;21214;-52